KBDL

Bradley International Airport

Windsor Locks, Connecticut, USA
METAR KBDL 242351Z 16010KT 10SM BKN220 OVC250 14/03 A3024 RMK AO2 SLP240 T01440033 10206 20144 55007
Observed Flight Rules
Apr-24 @ 23:51 UTC (an hour ago) Visual Flight Rules
Wind Visibility Clouds
160° at 10 knots 10 miles
  • Broken at 22,000' AGL
  • Overcast at 25,000' AGL
Temperatures Readings
Current 14°C / 57°F
Dewpoint 3°C / 37°F
Humidity 48%
Altimeter 30.24" Hg
Pressure 1024 hPa
Elevation 60
METAR KBDL 242351Z 16010KT 10SM BKN220 OVC250 14/03 A3024 RMK AO2 SLP240 T01440033 10206 20144 55007
Observed Flight Rules
Apr-24 @ 23:51 UTC
(an hour ago)
VFR
Wind Visibility
160° at 10 knots 10 miles
Clouds
  • Broken at 22,000' AGL
  • Overcast at 25,000' AGL
Temperature Dewpoint
14°C / 57°F 3°C / 37°F
Humidity Altimeter Pressure
48% 30.24" Hg 1024 hPa